sensor_id;sensor_type;location;lat;lon;timestamp;temperature;humidity
8459;DHT22;4266;48.816;9.154;2023-05-24T00:02:19;12.90;97.20
8459;DHT22;4266;48.816;9.154;2023-05-24T00:04:45;12.90;97.20
8459;DHT22;4266;48.816;9.154;2023-05-24T00:07:10;12.90;97.40
8459;DHT22;4266;48.816;9.154;2023-05-24T00:09:36;12.90;97.40
8459;DHT22;4266;48.816;9.154;2023-05-24T00:12:02;12.90;97.30
8459;DHT22;4266;48.816;9.154;2023-05-24T00:14:27;12.90;97.40
8459;DHT22;4266;48.816;9.154;2023-05-24T00:16:54;12.80;97.40
8459;DHT22;4266;48.816;9.154;2023-05-24T00:19:19;12.80;97.40
8459;DHT22;4266;48.816;9.154;2023-05-24T00:21:46;12.80;97.70
8459;DHT22;4266;48.816;9.154;2023-05-24T00:24:12;12.80;97.70
8459;DHT22;4266;48.816;9.154;2023-05-24T00:26:38;12.80;97.60
8459;DHT22;4266;48.816;9.154;2023-05-24T00:29:04;12.80;97.60
8459;DHT22;4266;48.816;9.154;2023-05-24T00:31:31;12.80;97.80
8459;DHT22;4266;48.816;9.154;2023-05-24T00:33:56;12.80;97.80
8459;DHT22;4266;48.816;9.154;2023-05-24T00:36:22;12.80;97.50
8459;DHT22;4266;48.816;9.154;2023-05-24T00:38:48;12.80;97.50
8459;DHT22;4266;48.816;9.154;2023-05-24T00:41:14;12.90;97.60
8459;DHT22;4266;48.816;9.154;2023-05-24T00:43:40;12.80;97.50
8459;DHT22;4266;48.816;9.154;2023-05-24T00:46:27;12.70;97.50
8459;DHT22;4266;48.816;9.154;2023-05-24T00:48:53;12.70;97.70
8459;DHT22;4266;48.816;9.154;2023-05-24T00:51:19;12.70;97.70
8459;DHT22;4266;48.816;9.154;2023-05-24T00:53:46;12.60;97.60
8459;DHT22;4266;48.816;9.154;2023-05-24T00:56:12;12.60;97.60
8459;DHT22;4266;48.816;9.154;2023-05-24T00:58:37;12.60;97.60
8459;DHT22;4266;48.816;9.154;2023-05-24T01:01:03;12.60;97.40
8459;DHT22;4266;48.816;9.154;2023-05-24T01:03:29;12.60;97.20
8459;DHT22;4266;48.816;9.154;2023-05-24T01:05:56;12.60;97.10
8459;DHT22;4266;48.816;9.154;2023-05-24T01:11:06;12.50;96.60
8459;DHT22;4266;48.816;9.154;2023-05-24T01:13:34;12.50;96.70
8459;DHT22;4266;48.816;9.154;2023-05-24T01:16:00;12.50;96.60
8459;DHT22;4266;48.816;9.154;2023-05-24T01:18:26;12.50;96.60
8459;DHT22;4266;48.816;9.154;2023-05-24T01:20:53;12.50;96.70
8459;DHT22;4266;48.816;9.154;2023-05-24T01:23:24;12.60;96.10
8459;DHT22;4266;48.816;9.154;2023-05-24T01:25:53;12.60;96.10
8459;DHT22;4266;48.816;9.154;2023-05-24T01:28:20;12.50;96.10
8459;DHT22;4266;48.816;9.154;2023-05-24T01:30:47;12.60;95.80
8459;DHT22;4266;48.816;9.154;2023-05-24T01:33:12;12.50;95.80
8459;DHT22;4266;48.816;9.154;2023-05-24T01:35:38;12.50;95.80
8459;DHT22;4266;48.816;9.154;2023-05-24T01:38:04;12.50;95.80
8459;DHT22;4266;48.816;9.154;2023-05-24T01:40:30;12.50;95.60
8459;DHT22;4266;48.816;9.154;2023-05-24T01:42:59;12.50;95.40
8459;DHT22;4266;48.816;9.154;2023-05-24T01:45:28;12.40;95.60
8459;DHT22;4266;48.816;9.154;2023-05-24T01:50:25;12.40;95.20
8459;DHT22;4266;48.816;9.154;2023-05-24T01:52:50;12.40;95.20
8459;DHT22;4266;48.816;9.154;2023-05-24T01:55:16;12.30;95.30
8459;DHT22;4266;48.816;9.154;2023-05-24T01:57:42;12.30;95.30
8459;DHT22;4266;48.816;9.154;2023-05-24T02:00:09;12.30;95.10
8459;DHT22;4266;48.816;9.154;2023-05-24T02:02:36;12.30;95.10
8459;DHT22;4266;48.816;9.154;2023-05-24T02:05:01;12.30;95.20
8459;DHT22;4266;48.816;9.154;2023-05-24T02:07:27;12.20;95.10
8459;DHT22;4266;48.816;9.154;2023-05-24T02:09:52;12.20;95.20
8459;DHT22;4266;48.816;9.154;2023-05-24T02:12:18;12.20;95.30
8459;DHT22;4266;48.816;9.154;2023-05-24T02:14:44;12.20;95.00
8459;DHT22;4266;48.816;9.154;2023-05-24T02:17:09;12.20;95.30
8459;DHT22;4266;48.816;9.154;2023-05-24T02:19:36;12.10;95.00
8459;DHT22;4266;48.816;9.154;2023-05-24T02:22:02;12.10;95.10
8459;DHT22;4266;48.816;9.154;2023-05-24T02:24:28;12.10;95.30
8459;DHT22;4266;48.816;9.154;2023-05-24T02:26:53;12.10;95.20
8459;DHT22;4266;48.816;9.154;2023-05-24T02:29:20;12.10;95.20
8459;DHT22;4266;48.816;9.154;2023-05-24T02:31:45;12.10;95.20
8459;DHT22;4266;48.816;9.154;2023-05-24T02:34:11;12.00;95.30
8459;DHT22;4266;48.816;9.154;2023-05-24T02:36:37;11.90;95.20
8459;DHT22;4266;48.816;9.154;2023-05-24T02:39:03;11.90;95.20
8459;DHT22;4266;48.816;9.154;2023-05-24T02:41:29;11.90;95.40
8459;DHT22;4266;48.816;9.154;2023-05-24T02:43:54;11.90;95.40
8459;DHT22;4266;48.816;9.154;2023-05-24T02:46:21;11.90;95.70
8459;DHT22;4266;48.816;9.154;2023-05-24T02:48:47;11.90;95.70
8459;DHT22;4266;48.816;9.154;2023-05-24T02:51:12;11.90;95.80
8459;DHT22;4266;48.816;9.154;2023-05-24T02:53:38;11.90;95.90
8459;DHT22;4266;48.816;9.154;2023-05-24T02:56:04;11.80;96.10
8459;DHT22;4266;48.816;9.154;2023-05-24T02:58:30;11.80;96.10
8459;DHT22;4266;48.816;9.154;2023-05-24T03:00:56;11.80;96.20
8459;DHT22;4266;48.816;9.154;2023-05-24T03:03:22;11.70;96.40
8459;DHT22;4266;48.816;9.154;2023-05-24T03:05:49;11.70;96.60
8459;DHT22;4266;48.816;9.154;2023-05-24T03:08:14;11.70;96.60
8459;DHT22;4266;48.816;9.154;2023-05-24T03:10:41;11.50;97.00
8459;DHT22;4266;48.816;9.154;2023-05-24T03:13:06;11.50;97.00
8459;DHT22;4266;48.816;9.154;2023-05-24T03:15:32;11.50;96.90
8459;DHT22;4266;48.816;9.154;2023-05-24T03:17:58;11.60;97.10
8459;DHT22;4266;48.816;9.154;2023-05-24T03:20:24;11.50;96.90
8459;DHT22;4266;48.816;9.154;2023-05-24T03:22:50;11.50;96.80
8459;DHT22;4266;48.816;9.154;2023-05-24T03:25:16;11.50;96.80
8459;DHT22;4266;48.816;9.154;2023-05-24T03:27:42;11.50;96.60
8459;DHT22;4266;48.816;9.154;2023-05-24T03:30:09;11.50;96.60
8459;DHT22;4266;48.816;9.154;2023-05-24T03:32:34;11.40;96.60
8459;DHT22;4266;48.816;9.154;2023-05-24T03:35:01;11.30;96.70
8459;DHT22;4266;48.816;9.154;2023-05-24T03:37:27;11.30;96.60
8459;DHT22;4266;48.816;9.154;2023-05-24T03:39:53;11.20;96.70
8459;DHT22;4266;48.816;9.154;2023-05-24T03:42:19;11.20;96.70
8459;DHT22;4266;48.816;9.154;2023-05-24T03:44:44;11.20;96.70
8459;DHT22;4266;48.816;9.154;2023-05-24T03:47:10;11.20;96.80
8459;DHT22;4266;48.816;9.154;2023-05-24T03:49:36;11.10;96.70
8459;DHT22;4266;48.816;9.154;2023-05-24T03:52:02;11.10;96.70
8459;DHT22;4266;48.816;9.154;2023-05-24T03:54:28;11.10;96.70
8459;DHT22;4266;48.816;9.154;2023-05-24T03:56:54;11.10;96.90
8459;DHT22;4266;48.816;9.154;2023-05-24T03:59:19;11.10;97.00
8459;DHT22;4266;48.816;9.154;2023-05-24T04:01:45;11.00;97.10
8459;DHT22;4266;48.816;9.154;2023-05-24T04:04:11;11.00;97.10
8459;DHT22;4266;48.816;9.154;2023-05-24T04:06:37;11.00;97.40
8459;DHT22;4266;48.816;9.154;2023-05-24T04:09:03;11.00;97.40
8459;DHT22;4266;48.816;9.154;2023-05-24T04:11:28;11.00;97.30
8459;DHT22;4266;48.816;9.154;2023-05-24T04:13:55;11.00;97.40
8459;DHT22;4266;48.816;9.154;2023-05-24T04:16:21;11.00;97.40
8459;DHT22;4266;48.816;9.154;2023-05-24T04:18:47;11.00;97.70
8459;DHT22;4266;48.816;9.154;2023-05-24T04:21:13;11.00;97.70
8459;DHT22;4266;48.816;9.154;2023-05-24T04:23:39;11.00;97.60
8459;DHT22;4266;48.816;9.154;2023-05-24T04:26:04;11.10;97.60
8459;DHT22;4266;48.816;9.154;2023-05-24T04:28:32;11.00;97.60
8459;DHT22;4266;48.816;9.154;2023-05-24T04:30:58;11.00;97.50
8459;DHT22;4266;48.816;9.154;2023-05-24T04:33:23;11.10;97.60
8459;DHT22;4266;48.816;9.154;2023-05-24T04:35:49;11.10;97.50
8459;DHT22;4266;48.816;9.154;2023-05-24T04:38:14;11.10;97.30
8459;DHT22;4266;48.816;9.154;2023-05-24T04:40:41;11.10;97.60
8459;DHT22;4266;48.816;9.154;2023-05-24T04:43:06;11.10;97.60
8459;DHT22;4266;48.816;9.154;2023-05-24T04:45:32;11.20;97.40
8459;DHT22;4266;48.816;9.154;2023-05-24T04:47:58;11.20;97.40
8459;DHT22;4266;48.816;9.154;2023-05-24T04:50:23;11.10;97.40
8459;DHT22;4266;48.816;9.154;2023-05-24T04:52:49;11.20;97.40
8459;DHT22;4266;48.816;9.154;2023-05-24T04:55:15;11.20;97.30
8459;DHT22;4266;48.816;9.154;2023-05-24T04:57:41;11.20;97.30
8459;DHT22;4266;48.816;9.154;2023-05-24T05:00:08;11.20;97.30
8459;DHT22;4266;48.816;9.154;2023-05-24T05:02:34;11.20;97.40
8459;DHT22;4266;48.816;9.154;2023-05-24T05:04:59;11.20;97.10
8459;DHT22;4266;48.816;9.154;2023-05-24T05:07:26;11.20;97.20
8459;DHT22;4266;48.816;9.154;2023-05-24T05:09:51;11.20;97.30
8459;DHT22;4266;48.816;9.154;2023-05-24T05:12:17;11.30;97.20
8459;DHT22;4266;48.816;9.154;2023-05-24T05:14:43;11.30;97.20
8459;DHT22;4266;48.816;9.154;2023-05-24T05:17:08;11.30;97.00
8459;DHT22;4266;48.816;9.154;2023-05-24T05:19:34;11.30;97.20
8459;DHT22;4266;48.816;9.154;2023-05-24T05:21:59;11.30;97.10
8459;DHT22;4266;48.816;9.154;2023-05-24T05:24:25;11.40;97.00
8459;DHT22;4266;48.816;9.154;2023-05-24T05:26:51;11.40;96.80
8459;DHT22;4266;48.816;9.154;2023-05-24T05:29:17;11.30;96.70
8459;DHT22;4266;48.816;9.154;2023-05-24T05:31:46;11.50;96.50
8459;DHT22;4266;48.816;9.154;2023-05-24T05:34:09;11.50;96.60
8459;DHT22;4266;48.816;9.154;2023-05-24T05:36:36;11.70;96.30
8459;DHT22;4266;48.816;9.154;2023-05-24T05:39:03;11.70;96.30
8459;DHT22;4266;48.816;9.154;2023-05-24T05:41:29;11.70;96.20
8459;DHT22;4266;48.816;9.154;2023-05-24T05:43:55;11.80;96.10
8459;DHT22;4266;48.816;9.154;2023-05-24T05:46:21;11.90;96.40
8459;DHT22;4266;48.816;9.154;2023-05-24T05:48:47;11.90;96.40
8459;DHT22;4266;48.816;9.154;2023-05-24T05:51:12;12.00;95.70
8459;DHT22;4266;48.816;9.154;2023-05-24T05:53:39;12.00;95.60
8459;DHT22;4266;48.816;9.154;2023-05-24T05:56:04;12.00;95.60
8459;DHT22;4266;48.816;9.154;2023-05-24T05:58:30;12.00;95.40
8459;DHT22;4266;48.816;9.154;2023-05-24T06:00:57;12.20;95.40
8459;DHT22;4266;48.816;9.154;2023-05-24T06:03:22;12.20;95.40
8459;DHT22;4266;48.816;9.154;2023-05-24T06:05:48;12.30;95.50
8459;DHT22;4266;48.816;9.154;2023-05-24T06:08:13;12.10;95.10
8459;DHT22;4266;48.816;9.154;2023-05-24T06:10:39;12.30;94.80
8459;DHT22;4266;48.816;9.154;2023-05-24T06:13:05;12.20;94.60
8459;DHT22;4266;48.816;9.154;2023-05-24T06:15:31;12.30;94.80
8459;DHT22;4266;48.816;9.154;2023-05-24T06:17:56;12.40;94.80
8459;DHT22;4266;48.816;9.154;2023-05-24T06:20:22;12.40;94.60
8459;DHT22;4266;48.816;9.154;2023-05-24T06:22:47;12.60;94.80
8459;DHT22;4266;48.816;9.154;2023-05-24T06:25:14;12.80;94.70
8459;DHT22;4266;48.816;9.154;2023-05-24T06:27:40;13.10;94.10
8459;DHT22;4266;48.816;9.154;2023-05-24T06:30:06;13.00;94.00
8459;DHT22;4266;48.816;9.154;2023-05-24T06:32:32;13.10;94.30
8459;DHT22;4266;48.816;9.154;2023-05-24T06:34:58;13.20;94.30
8459;DHT22;4266;48.816;9.154;2023-05-24T06:37:24;13.20;94.10
8459;DHT22;4266;48.816;9.154;2023-05-24T06:39:50;13.20;93.80
8459;DHT22;4266;48.816;9.154;2023-05-24T06:42:15;13.30;93.80
8459;DHT22;4266;48.816;9.154;2023-05-24T06:44:41;13.10;93.70
8459;DHT22;4266;48.816;9.154;2023-05-24T06:47:06;13.00;93.70
8459;DHT22;4266;48.816;9.154;2023-05-24T06:49:32;12.90;94.00
8459;DHT22;4266;48.816;9.154;2023-05-24T06:51:58;12.90;93.80
8459;DHT22;4266;48.816;9.154;2023-05-24T06:54:23;13.00;94.00
8459;DHT22;4266;48.816;9.154;2023-05-24T06:56:49;12.90;94.00
8459;DHT22;4266;48.816;9.154;2023-05-24T06:59:15;12.70;93.90
8459;DHT22;4266;48.816;9.154;2023-05-24T07:01:41;12.70;93.90
8459;DHT22;4266;48.816;9.154;2023-05-24T07:04:08;12.70;94.00
8459;DHT22;4266;48.816;9.154;2023-05-24T07:06:33;12.50;94.20
8459;DHT22;4266;48.816;9.154;2023-05-24T07:09:00;12.70;94.30
8459;DHT22;4266;48.816;9.154;2023-05-24T07:11:26;12.70;94.30
8459;DHT22;4266;48.816;9.154;2023-05-24T07:13:52;12.80;94.50
8459;DHT22;4266;48.816;9.154;2023-05-24T07:16:18;12.80;94.60
8459;DHT22;4266;48.816;9.154;2023-05-24T07:18:44;12.70;94.30
8459;DHT22;4266;48.816;9.154;2023-05-24T07:21:10;12.70;94.30
8459;DHT22;4266;48.816;9.154;2023-05-24T07:23:36;12.80;94.30
8459;DHT22;4266;48.816;9.154;2023-05-24T07:26:02;12.60;94.40
8459;DHT22;4266;48.816;9.154;2023-05-24T07:28:27;12.50;94.20
8459;DHT22;4266;48.816;9.154;2023-05-24T07:30:53;12.70;94.40
8459;DHT22;4266;48.816;9.154;2023-05-24T07:33:18;12.60;94.40
8459;DHT22;4266;48.816;9.154;2023-05-24T07:35:44;12.60;94.40
8459;DHT22;4266;48.816;9.154;2023-05-24T07:38:10;12.80;94.60
8459;DHT22;4266;48.816;9.154;2023-05-24T07:40:36;12.80;94.60
8459;DHT22;4266;48.816;9.154;2023-05-24T07:43:02;13.60;94.60
8459;DHT22;4266;48.816;9.154;2023-05-24T07:45:28;13.60;94.60
8459;DHT22;4266;48.816;9.154;2023-05-24T07:47:54;13.90;94.20
8459;DHT22;4266;48.816;9.154;2023-05-24T07:50:20;14.00;93.70
8459;DHT22;4266;48.816;9.154;2023-05-24T07:52:46;14.00;93.80
8459;DHT22;4266;48.816;9.154;2023-05-24T07:55:13;14.00;94.10
8459;DHT22;4266;48.816;9.154;2023-05-24T07:57:38;14.00;93.90
8459;DHT22;4266;48.816;9.154;2023-05-24T08:00:05;13.90;93.80
8459;DHT22;4266;48.816;9.154;2023-05-24T08:02:31;14.10;93.50
8459;DHT22;4266;48.816;9.154;2023-05-24T08:04:57;14.10;93.10
8459;DHT22;4266;48.816;9.154;2023-05-24T08:07:22;14.00;93.40
8459;DHT22;4266;48.816;9.154;2023-05-24T08:09:48;14.30;93.50
8459;DHT22;4266;48.816;9.154;2023-05-24T08:12:15;14.40;93.60
8459;DHT22;4266;48.816;9.154;2023-05-24T08:14:40;14.20;93.50
8459;DHT22;4266;48.816;9.154;2023-05-24T08:17:07;14.30;93.40
8459;DHT22;4266;48.816;9.154;2023-05-24T08:19:32;14.30;93.40
8459;DHT22;4266;48.816;9.154;2023-05-24T08:21:59;14.20;93.30
8459;DHT22;4266;48.816;9.154;2023-05-24T08:24:24;14.20;93.30
8459;DHT22;4266;48.816;9.154;2023-05-24T08:26:51;14.20;93.20
8459;DHT22;4266;48.816;9.154;2023-05-24T08:29:17;14.20;93.20
8459;DHT22;4266;48.816;9.154;2023-05-24T08:31:42;14.10;93.10
8459;DHT22;4266;48.816;9.154;2023-05-24T08:34:10;14.10;93.00
8459;DHT22;4266;48.816;9.154;2023-05-24T08:36:35;14.10;93.00
8459;DHT22;4266;48.816;9.154;2023-05-24T08:39:01;14.20;93.00
8459;DHT22;4266;48.816;9.154;2023-05-24T08:41:27;14.80;92.70
8459;DHT22;4266;48.816;9.154;2023-05-24T08:43:53;14.80;92.70
8459;DHT22;4266;48.816;9.154;2023-05-24T08:46:19;15.20;92.90
8459;DHT22;4266;48.816;9.154;2023-05-24T08:48:45;15.20;92.80
8459;DHT22;4266;48.816;9.154;2023-05-24T08:51:10;15.30;92.30
8459;DHT22;4266;48.816;9.154;2023-05-24T08:53:36;15.50;92.50
8459;DHT22;4266;48.816;9.154;2023-05-24T08:56:01;15.60;92.40
8459;DHT22;4266;48.816;9.154;2023-05-24T08:58:28;15.30;91.70
8459;DHT22;4266;48.816;9.154;2023-05-24T09:00:53;15.30;91.90
8459;DHT22;4266;48.816;9.154;2023-05-24T09:03:20;15.30;92.20
8459;DHT22;4266;48.816;9.154;2023-05-24T09:05:45;15.30;92.20
8459;DHT22;4266;48.816;9.154;2023-05-24T09:08:11;15.20;92.20
8459;DHT22;4266;48.816;9.154;2023-05-24T09:10:37;15.20;92.20
8459;DHT22;4266;48.816;9.154;2023-05-24T09:13:02;15.20;92.30
8459;DHT22;4266;48.816;9.154;2023-05-24T09:15:28;15.10;92.30
8459;DHT22;4266;48.816;9.154;2023-05-24T09:17:54;15.10;92.30
8459;DHT22;4266;48.816;9.154;2023-05-24T09:20:20;14.90;92.00
8459;DHT22;4266;48.816;9.154;2023-05-24T09:22:49;14.90;92.00
8459;DHT22;4266;48.816;9.154;2023-05-24T09:25:12;14.80;92.00
8459;DHT22;4266;48.816;9.154;2023-05-24T09:27:38;14.80;92.10
8459;DHT22;4266;48.816;9.154;2023-05-24T09:30:08;14.80;92.10
8459;DHT22;4266;48.816;9.154;2023-05-24T09:32:34;14.80;92.00
8459;DHT22;4266;48.816;9.154;2023-05-24T09:34:59;14.80;92.40
8459;DHT22;4266;48.816;9.154;2023-05-24T09:37:26;14.80;92.30
8459;DHT22;4266;48.816;9.154;2023-05-24T09:39:51;15.00;92.00
8459;DHT22;4266;48.816;9.154;2023-05-24T09:42:17;14.90;92.00
8459;DHT22;4266;48.816;9.154;2023-05-24T09:44:42;14.80;92.10
8459;DHT22;4266;48.816;9.154;2023-05-24T09:47:08;14.80;92.20
8459;DHT22;4266;48.816;9.154;2023-05-24T09:49:35;14.60;91.80
8459;DHT22;4266;48.816;9.154;2023-05-24T09:52:00;14.70;92.50
8459;DHT22;4266;48.816;9.154;2023-05-24T09:54:26;14.60;92.30
8459;DHT22;4266;48.816;9.154;2023-05-24T09:56:51;14.50;92.20
8459;DHT22;4266;48.816;9.154;2023-05-24T09:59:17;14.60;92.10
8459;DHT22;4266;48.816;9.154;2023-05-24T10:01:43;14.20;92.40
8459;DHT22;4266;48.816;9.154;2023-05-24T10:04:09;14.20;92.40
8459;DHT22;4266;48.816;9.154;2023-05-24T10:06:35;14.20;92.20
8459;DHT22;4266;48.816;9.154;2023-05-24T10:09:00;14.20;92.00
8459;DHT22;4266;48.816;9.154;2023-05-24T10:11:26;14.10;92.10
8459;DHT22;4266;48.816;9.154;2023-05-24T10:13:52;14.10;92.20
8459;DHT22;4266;48.816;9.154;2023-05-24T10:16:17;14.00;91.70
8459;DHT22;4266;48.816;9.154;2023-05-24T10:18:43;13.90;92.00
8459;DHT22;4266;48.816;9.154;2023-05-24T10:21:09;14.00;92.00
8459;DHT22;4266;48.816;9.154;2023-05-24T10:23:35;13.80;91.80
8459;DHT22;4266;48.816;9.154;2023-05-24T10:26:03;13.90;92.00
8459;DHT22;4266;48.816;9.154;2023-05-24T10:28:27;13.70;92.00
8459;DHT22;4266;48.816;9.154;2023-05-24T10:30:58;13.70;91.90
8459;DHT22;4266;48.816;9.154;2023-05-24T10:33:20;13.80;91.80
8459;DHT22;4266;48.816;9.154;2023-05-24T10:35:44;13.90;92.60
8459;DHT22;4266;48.816;9.154;2023-05-24T10:38:10;14.00;92.00
8459;DHT22;4266;48.816;9.154;2023-05-24T10:40:39;14.10;92.20
8459;DHT22;4266;48.816;9.154;2023-05-24T10:43:03;13.90;92.00
8459;DHT22;4266;48.816;9.154;2023-05-24T10:45:30;14.10;92.20
8459;DHT22;4266;48.816;9.154;2023-05-24T10:47:56;14.00;91.50
8459;DHT22;4266;48.816;9.154;2023-05-24T10:50:22;14.00;91.50
8459;DHT22;4266;48.816;9.154;2023-05-24T10:52:48;14.00;91.50
8459;DHT22;4266;48.816;9.154;2023-05-24T10:55:13;14.00;91.40
8459;DHT22;4266;48.816;9.154;2023-05-24T10:57:39;14.40;91.70
8459;DHT22;4266;48.816;9.154;2023-05-24T11:02:43;14.80;92.00
8459;DHT22;4266;48.816;9.154;2023-05-24T11:05:08;15.10;91.20
8459;DHT22;4266;48.816;9.154;2023-05-24T11:07:39;15.60;91.20
8459;DHT22;4266;48.816;9.154;2023-05-24T11:10:02;15.50;90.90
8459;DHT22;4266;48.816;9.154;2023-05-24T11:12:28;15.80;90.30
8459;DHT22;4266;48.816;9.154;2023-05-24T11:14:51;15.90;90.00
8459;DHT22;4266;48.816;9.154;2023-05-24T11:17:19;16.20;90.20
8459;DHT22;4266;48.816;9.154;2023-05-24T11:19:48;16.80;90.50
8459;DHT22;4266;48.816;9.154;2023-05-24T11:22:12;16.80;90.00
8459;DHT22;4266;48.816;9.154;2023-05-24T11:24:39;17.30;89.40
8459;DHT22;4266;48.816;9.154;2023-05-24T11:27:06;17.50;89.00
8459;DHT22;4266;48.816;9.154;2023-05-24T11:29:38;18.90;87.40
8459;DHT22;4266;48.816;9.154;2023-05-24T11:31:58;18.80;86.90
8459;DHT22;4266;48.816;9.154;2023-05-24T11:34:27;21.50;83.60
8459;DHT22;4266;48.816;9.154;2023-05-24T11:36:53;21.50;83.50
8459;DHT22;4266;48.816;9.154;2023-05-24T11:39:18;21.90;76.40
8459;DHT22;4266;48.816;9.154;2023-05-24T11:41:44;22.20;75.50
8459;DHT22;4266;48.816;9.154;2023-05-24T11:44:10;22.90;72.30
8459;DHT22;4266;48.816;9.154;2023-05-24T11:46:37;24.00;68.70
8459;DHT22;4266;48.816;9.154;2023-05-24T11:49:01;24.60;67.90
8459;DHT22;4266;48.816;9.154;2023-05-24T11:51:27;25.40;62.00
8459;DHT22;4266;48.816;9.154;2023-05-24T11:53:52;25.10;58.80
8459;DHT22;4266;48.816;9.154;2023-05-24T11:56:18;24.30;55.80
8459;DHT22;4266;48.816;9.154;2023-05-24T11:58:45;25.60;58.00
8459;DHT22;4266;48.816;9.154;2023-05-24T12:01:23;26.40;56.70
8459;DHT22;4266;48.816;9.154;2023-05-24T12:03:48;26.40;55.10
8459;DHT22;4266;48.816;9.154;2023-05-24T12:06:13;26.50;52.10
8459;DHT22;4266;48.816;9.154;2023-05-24T12:08:39;25.20;52.80
8459;DHT22;4266;48.816;9.154;2023-05-24T12:11:05;25.00;52.90
8459;DHT22;4266;48.816;9.154;2023-05-24T12:13:31;25.50;51.30
8459;DHT22;4266;48.816;9.154;2023-05-24T12:15:57;23.10;51.70
8459;DHT22;4266;48.816;9.154;2023-05-24T12:18:24;23.00;51.60
8459;DHT22;4266;48.816;9.154;2023-05-24T12:20:48;22.90;53.60
8459;DHT22;4266;48.816;9.154;2023-05-24T12:23:14;23.40;53.30
8459;DHT22;4266;48.816;9.154;2023-05-24T12:25:40;22.50;53.50
8459;DHT22;4266;48.816;9.154;2023-05-24T12:28:05;22.10;52.30
8459;DHT22;4266;48.816;9.154;2023-05-24T12:30:31;21.80;54.00
8459;DHT22;4266;48.816;9.154;2023-05-24T12:32:57;21.40;53.30
8459;DHT22;4266;48.816;9.154;2023-05-24T12:35:22;21.20;54.60
8459;DHT22;4266;48.816;9.154;2023-05-24T12:37:48;21.20;53.80
8459;DHT22;4266;48.816;9.154;2023-05-24T12:40:16;21.60;54.80
8459;DHT22;4266;48.816;9.154;2023-05-24T12:42:42;21.90;55.10
8459;DHT22;4266;48.816;9.154;2023-05-24T12:45:08;21.80;55.00
8459;DHT22;4266;48.816;9.154;2023-05-24T12:47:34;21.90;55.20
8459;DHT22;4266;48.816;9.154;2023-05-24T12:50:00;21.20;54.50
8459;DHT22;4266;48.816;9.154;2023-05-24T12:52:26;19.80;54.10
8459;DHT22;4266;48.816;9.154;2023-05-24T12:54:52;19.80;54.10
8459;DHT22;4266;48.816;9.154;2023-05-24T12:57:17;19.20;56.30
8459;DHT22;4266;48.816;9.154;2023-05-24T12:59:43;19.30;55.30
8459;DHT22;4266;48.816;9.154;2023-05-24T13:02:09;18.70;55.70
8459;DHT22;4266;48.816;9.154;2023-05-24T13:04:34;18.80;55.20
8459;DHT22;4266;48.816;9.154;2023-05-24T13:07:00;18.10;56.20
8459;DHT22;4266;48.816;9.154;2023-05-24T13:09:26;18.50;57.50
8459;DHT22;4266;48.816;9.154;2023-05-24T13:11:51;18.90;58.20
8459;DHT22;4266;48.816;9.154;2023-05-24T13:14:17;19.10;57.10
8459;DHT22;4266;48.816;9.154;2023-05-24T13:16:43;20.00;56.80
8459;DHT22;4266;48.816;9.154;2023-05-24T13:19:09;19.90;56.70
8459;DHT22;4266;48.816;9.154;2023-05-24T13:21:36;19.90;54.20
8459;DHT22;4266;48.816;9.154;2023-05-24T13:24:02;19.10;53.90
8459;DHT22;4266;48.816;9.154;2023-05-24T13:26:28;19.00;55.30
8459;DHT22;4266;48.816;9.154;2023-05-24T13:28:54;19.00;55.30
8459;DHT22;4266;48.816;9.154;2023-05-24T13:31:20;18.30;54.60
8459;DHT22;4266;48.816;9.154;2023-05-24T13:33:45;18.40;55.40
8459;DHT22;4266;48.816;9.154;2023-05-24T13:36:11;18.60;54.80
8459;DHT22;4266;48.816;9.154;2023-05-24T13:38:37;18.50;54.70
8459;DHT22;4266;48.816;9.154;2023-05-24T13:41:02;18.90;55.70
8459;DHT22;4266;48.816;9.154;2023-05-24T13:43:28;18.90;54.20
8459;DHT22;4266;48.816;9.154;2023-05-24T13:45:54;19.00;54.60
8459;DHT22;4266;48.816;9.154;2023-05-24T13:48:20;19.30;55.60
8459;DHT22;4266;48.816;9.154;2023-05-24T13:50:46;19.20;55.50
8459;DHT22;4266;48.816;9.154;2023-05-24T13:53:12;19.10;54.80
8459;DHT22;4266;48.816;9.154;2023-05-24T13:55:37;19.50;56.30
8459;DHT22;4266;48.816;9.154;2023-05-24T13:58:04;19.40;54.30
8459;DHT22;4266;48.816;9.154;2023-05-24T14:00:30;19.40;54.30
8459;DHT22;4266;48.816;9.154;2023-05-24T14:02:56;19.10;54.80
8459;DHT22;4266;48.816;9.154;2023-05-24T14:05:21;18.80;53.40
8459;DHT22;4266;48.816;9.154;2023-05-24T14:07:47;18.20;53.00
8459;DHT22;4266;48.816;9.154;2023-05-24T14:10:14;18.00;54.40
8459;DHT22;4266;48.816;9.154;2023-05-24T14:12:41;18.00;54.50
8459;DHT22;4266;48.816;9.154;2023-05-24T14:15:07;18.00;54.50
8459;DHT22;4266;48.816;9.154;2023-05-24T14:17:33;18.00;55.30
8459;DHT22;4266;48.816;9.154;2023-05-24T14:19:59;17.90;55.50
8459;DHT22;4266;48.816;9.154;2023-05-24T14:22:26;18.20;56.40
8459;DHT22;4266;48.816;9.154;2023-05-24T14:24:51;18.20;56.40
8459;DHT22;4266;48.816;9.154;2023-05-24T14:27:17;18.00;54.70
8459;DHT22;4266;48.816;9.154;2023-05-24T14:29:43;17.90;53.30
8459;DHT22;4266;48.816;9.154;2023-05-24T14:32:09;17.80;53.80
8459;DHT22;4266;48.816;9.154;2023-05-24T14:34:34;17.80;53.90
8459;DHT22;4266;48.816;9.154;2023-05-24T14:37:00;18.20;54.90
8459;DHT22;4266;48.816;9.154;2023-05-24T14:39:26;18.00;54.60
8459;DHT22;4266;48.816;9.154;2023-05-24T14:41:51;17.50;52.30
8459;DHT22;4266;48.816;9.154;2023-05-24T14:44:17;17.40;53.40
8459;DHT22;4266;48.816;9.154;2023-05-24T14:46:44;17.30;52.50
8459;DHT22;4266;48.816;9.154;2023-05-24T14:49:08;17.60;53.30
8459;DHT22;4266;48.816;9.154;2023-05-24T14:51:35;18.20;53.40
8459;DHT22;4266;48.816;9.154;2023-05-24T14:54:01;18.10;53.50
8459;DHT22;4266;48.816;9.154;2023-05-24T14:56:26;18.20;53.30
8459;DHT22;4266;48.816;9.154;2023-05-24T14:58:53;18.30;53.30
8459;DHT22;4266;48.816;9.154;2023-05-24T15:01:18;18.20;53.20
8459;DHT22;4266;48.816;9.154;2023-05-24T15:03:45;18.20;53.20
8459;DHT22;4266;48.816;9.154;2023-05-24T15:06:10;18.20;53.20
8459;DHT22;4266;48.816;9.154;2023-05-24T15:08:36;18.30;53.80
8459;DHT22;4266;48.816;9.154;2023-05-24T15:11:03;18.70;54.70
8459;DHT22;4266;48.816;9.154;2023-05-24T15:13:28;18.70;54.30
8459;DHT22;4266;48.816;9.154;2023-05-24T15:15:54;18.40;53.60
8459;DHT22;4266;48.816;9.154;2023-05-24T15:18:20;18.10;52.90
8459;DHT22;4266;48.816;9.154;2023-05-24T15:20:46;18.10;53.00
8459;DHT22;4266;48.816;9.154;2023-05-24T15:23:12;18.00;52.70
8459;DHT22;4266;48.816;9.154;2023-05-24T15:25:38;18.00;52.60
8459;DHT22;4266;48.816;9.154;2023-05-24T15:28:04;18.10;53.10
8459;DHT22;4266;48.816;9.154;2023-05-24T15:30:29;18.00;52.30
8459;DHT22;4266;48.816;9.154;2023-05-24T15:32:55;18.20;52.30
8459;DHT22;4266;48.816;9.154;2023-05-24T15:35:21;18.20;52.70
8459;DHT22;4266;48.816;9.154;2023-05-24T15:37:46;18.10;52.30
8459;DHT22;4266;48.816;9.154;2023-05-24T15:40:12;18.40;53.20
8459;DHT22;4266;48.816;9.154;2023-05-24T15:42:38;18.70;53.20
8459;DHT22;4266;48.816;9.154;2023-05-24T15:45:05;18.80;53.00
8459;DHT22;4266;48.816;9.154;2023-05-24T15:47:31;18.80;53.00
8459;DHT22;4266;48.816;9.154;2023-05-24T15:49:57;18.80;53.80
8459;DHT22;4266;48.816;9.154;2023-05-24T15:52:22;18.50;53.80
8459;DHT22;4266;48.816;9.154;2023-05-24T15:54:48;18.30;52.60
8459;DHT22;4266;48.816;9.154;2023-05-24T15:57:14;18.20;53.30
8459;DHT22;4266;48.816;9.154;2023-05-24T15:59:40;18.60;52.90
8459;DHT22;4266;48.816;9.154;2023-05-24T16:02:06;18.60;53.50